Time;durP1;ratioP1;P1;durP2;ratioP2;P2;SDS_P1;SDS_P2;PMS_P1;PMS_P2;Temp;Humidity;BMP_temperature;BMP_pressure;BME280_temperature;BME280_humidity;BME280_pressure;Samples;Min_cycle;Max_cycle;Signal;HPM_P1;HPM_P2
2023/03/20 00:00:47;;;;;;;11.27;6.65;;;;;;;5.61;56.04;95128.13;5094955;28;20099;-81
2023/03/20 00:03:12;;;;;;;9.55;6.55;;;;;;;5.57;56.05;95118.91;5111957;28;20127;-81
2023/03/20 00:05:38;;;;;;;11.27;7.03;;;;;;;5.35;56.08;95096.97;5077700;28;20497;-81
2023/03/20 00:08:04;;;;;;;11.27;6.72;;;;;;;5.46;56.12;95123.84;5095626;28;20032;-80
2023/03/20 00:10:34;;;;;;;9.18;6.30;;;;;;;5.42;56.28;95119.81;5074235;28;20028;-80
2023/03/20 00:13:00;;;;;;;10.05;6.43;;;;;;;5.51;56.15;95114.09;5058178;28;20478;-81
2023/03/20 00:15:31;;;;;;;9.38;6.28;;;;;;;5.42;56.00;95104.34;5058085;28;20071;-81
2023/03/20 00:17:56;;;;;;;9.57;6.60;;;;;;;5.31;56.38;95103.19;5094653;28;20027;-81
2023/03/20 00:20:22;;;;;;;10.73;6.43;;;;;;;5.32;56.36;95086.00;5094540;28;20042;-81
2023/03/20 00:22:48;;;;;;;10.85;7.28;;;;;;;5.25;56.47;95074.41;5077304;28;20034;-81
2023/03/20 00:25:18;;;;;;;11.30;6.80;;;;;;;5.36;56.65;95106.34;5073694;28;20027;-81
2023/03/20 00:27:44;;;;;;;12.90;7.72;;;;;;;5.25;56.68;95100.97;5089934;28;20036;-80
2023/03/20 00:30:32;;;;;;;15.45;7.20;;;;;;;5.25;56.95;95093.25;5107772;28;20088;-81
2023/03/20 00:32:58;;;;;;;10.48;6.88;;;;;;;5.10;57.54;95097.53;5096096;28;20042;-81
2023/03/20 00:35:25;;;;;;;10.75;7.00;;;;;;;5.11;57.28;95096.63;5110324;28;20036;-82
2023/03/20 00:37:51;;;;;;;11.00;6.47;;;;;;;5.02;57.53;95091.19;5093907;28;20118;-81
2023/03/20 00:40:17;;;;;;;11.68;7.32;;;;;;;4.88;57.55;95069.59;5093982;28;20028;-81
2023/03/20 00:42:44;;;;;;;11.07;6.93;;;;;;;5.00;57.83;95093.00;5091418;28;20046;-81
2023/03/20 00:45:12;;;;;;;10.18;6.78;;;;;;;4.91;57.63;95084.88;5077281;28;20035;-81
2023/03/20 00:47:40;;;;;;;10.60;6.35;;;;;;;4.96;57.82;95088.91;5110690;28;20035;-81
2023/03/20 00:50:12;;;;;;;9.73;6.90;;;;;;;4.83;57.96;95087.06;5110798;28;20549;-81
2023/03/20 00:52:37;;;;;;;10.80;7.03;;;;;;;4.97;57.69;95090.59;5068204;28;20516;-81
2023/03/20 00:55:03;;;;;;;10.20;6.57;;;;;;;4.89;57.74;95088.44;5056848;28;20032;-81
2023/03/20 00:57:31;;;;;;;10.27;5.80;;;;;;;4.64;58.07;95052.97;5090187;28;20169;-81
2023/03/20 01:00:05;;;;;;;11.02;5.60;;;;;;;4.91;57.57;95086.63;5073817;28;20052;-81
2023/03/20 01:02:31;;;;;;;10.57;5.55;;;;;;;4.82;57.97;95064.81;5105840;28;20035;-81
2023/03/20 01:04:57;;;;;;;9.88;6.43;;;;;;;4.90;57.46;95080.66;5093342;28;20058;-81
2023/03/20 01:07:23;;;;;;;9.48;5.90;;;;;;;4.82;58.12;95076.81;5076969;28;20047;-81
2023/03/20 01:09:49;;;;;;;11.52;6.55;;;;;;;4.83;57.92;95081.91;5110386;28;20057;-81
2023/03/20 01:12:15;;;;;;;9.73;6.18;;;;;;;4.69;57.92;95061.25;5093387;28;20493;-81
2023/03/20 01:14:41;;;;;;;13.13;5.70;;;;;;;4.72;57.50;95043.06;5076876;28;20042;-81
2023/03/20 01:17:16;;;;;;;10.60;5.95;;;;;;;4.84;57.75;95072.44;5076645;28;20035;-80
2023/03/20 01:19:41;;;;;;;11.18;6.50;;;;;;;4.74;57.44;95064.41;5085281;28;20028;-81
2023/03/20 01:22:07;;;;;;;10.07;5.70;;;;;;;4.92;57.10;95072.81;5090097;28;20409;-81
2023/03/20 01:24:32;;;;;;;9.32;6.15;;;;;;;4.66;57.46;95051.97;5073163;28;20092;-81
2023/03/20 01:27:02;;;;;;;10.52;6.47;;;;;;;4.74;57.30;95055.84;5073373;28;20043;-81
2023/03/20 01:29:27;;;;;;;9.50;6.15;;;;;;;4.84;57.37;95075.81;5073709;28;20061;-81
2023/03/20 01:31:53;;;;;;;11.20;6.10;;;;;;;4.80;57.30;95068.38;5089942;28;20192;-79
2023/03/20 01:34:19;;;;;;;14.27;6.43;;;;;;;4.78;57.00;95063.31;5108423;28;20023;-81
2023/03/20 01:36:50;;;;;;;9.10;5.93;;;;;;;4.61;57.65;95047.97;5076757;28;20035;-80
2023/03/20 01:39:17;;;;;;;10.07;6.70;;;;;;;4.60;57.85;95078.03;5073505;28;20100;-81
2023/03/20 01:41:44;;;;;;;9.55;6.07;;;;;;;4.49;57.38;95054.63;5092911;28;20063;-80
2023/03/20 01:44:23;;;;;;;10.93;6.30;;;;;;;4.59;57.68;95062.66;5093886;28;20032;-80
2023/03/20 01:46:52;;;;;;;11.45;6.35;;;;;;;4.56;57.75;95073.13;5094014;28;20051;-81
2023/03/20 01:49:18;;;;;;;9.80;6.13;;;;;;;4.59;57.77;95080.69;5077137;28;20059;-81
2023/03/20 01:51:43;;;;;;;10.98;6.20;;;;;;;4.38;58.21;95060.38;5110892;28;20466;-81
2023/03/20 01:54:26;;;;;;;9.10;6.13;;;;;;;4.42;57.86;95076.47;5076623;28;20043;-81
2023/03/20 01:56:55;;;;;;;10.05;6.63;;;;;;;4.13;58.67;95058.28;5093674;28;20114;-81
2023/03/20 01:59:27;;;;;;;10.32;6.40;;;;;;;4.26;59.05;95084.16;5060299;28;20035;-81
2023/03/20 02:01:52;;;;;;;9.98;6.25;;;;;;;4.29;58.81;95075.47;5093565;28;20520;-81
2023/03/20 02:04:18;;;;;;;10.18;6.82;;;;;;;4.09;58.76;95049.06;5076252;28;20075;-81
2023/03/20 02:06:44;;;;;;;10.75;6.10;;;;;;;4.08;59.47;95069.75;5096946;28;20031;-81
2023/03/20 02:09:09;;;;;;;10.00;6.18;;;;;;;4.25;58.98;95083.34;5096727;28;20037;-81
2023/03/20 02:11:35;;;;;;;10.95;5.97;;;;;;;4.28;58.82;95079.78;5097276;28;20038;-79
2023/03/20 02:14:00;;;;;;;9.77;5.95;;;;;;;4.36;58.77;95081.94;5073970;28;20024;-81
2023/03/20 02:16:26;;;;;;;9.93;6.63;;;;;;;4.22;58.88;95062.13;5076609;28;20419;-81
2023/03/20 02:18:55;;;;;;;9.15;5.82;;;;;;;4.22;58.69;95050.06;5076418;28;20043;-81
2023/03/20 02:21:57;;;;;;;8.50;6.10;;;;;;;4.32;58.51;95073.56;5076722;28;20078;-80
2023/03/20 02:24:45;;;;;;;9.95;5.88;;;;;;;4.33;58.78;95074.41;5110113;28;20043;-81
2023/03/20 02:27:22;;;;;;;9.27;6.00;;;;;;;4.21;58.54;95088.75;5094391;28;20031;-81
2023/03/20 02:30:14;;;;;;;9.93;5.57;;;;;;;4.18;58.83;95087.16;5108914;28;20035;-81
2023/03/20 02:32:42;;;;;;;;;;;;;;;4.23;58.75;95079.19;5120210;27;20100;-80
2023/03/20 02:35:47;;;;;;;8.25;5.15;;;;;;;4.13;58.94;95083.19;5113403;28;20364;-80
2023/03/20 02:38:34;;;;;;;8.57;5.80;;;;;;;4.08;59.49;95080.03;5141406;27;20505;-81
2023/03/20 02:41:23;;;;;;;10.55;5.68;;;;;;;4.13;59.14;95089.16;5129186;27;20086;-80
2023/03/20 02:44:11;;;;;;;11.07;5.82;;;;;;;4.05;59.27;95080.19;5113418;28;20020;-81
2023/03/20 02:47:06;;;;;;;8.65;5.57;;;;;;;4.18;58.92;95082.03;5096094;28;20443;-80
2023/03/20 02:49:50;;;;;;;9.38;5.03;;;;;;;4.17;59.19;95082.09;5096044;28;20485;-81
2023/03/20 02:52:31;;;;;;;8.02;5.15;;;;;;;4.17;58.62;95062.34;5091209;28;20040;-81
2023/03/20 02:55:00;;;;;;;10.63;5.90;;;;;;;4.30;58.48;95075.38;5075964;28;20402;-81
2023/03/20 02:57:39;;;;;;;9.55;5.60;;;;;;;4.25;58.71;95069.66;5092492;28;20032;-81
2023/03/20 03:00:08;;;;;;;10.02;5.55;;;;;;;4.29;58.82;95068.59;5092820;28;20027;-81
2023/03/20 03:03:05;;;;;;;9.60;5.20;;;;;;;4.29;58.58;95058.31;5092512;28;20035;-80
2023/03/20 03:05:37;;;;;;;8.85;5.57;;;;;;;4.18;58.79;95061.47;5092413;28;20066;-81
2023/03/20 03:08:03;;;;;;;9.23;5.82;;;;;;;4.15;58.86;95055.63;5061752;28;20036;-81
2023/03/20 03:10:30;;;;;;;8.00;5.20;;;;;;;4.08;58.53;95042.28;5079134;28;20035;-81
2023/03/20 03:12:57;;;;;;;8.38;4.95;;;;;;;4.03;59.10;95055.38;5079166;28;20055;-80
2023/03/20 03:15:26;;;;;;;6.78;4.57;;;;;;;4.03;58.67;95047.66;5079186;28;20454;-81
2023/03/20 03:17:52;;;;;;;8.57;4.97;;;;;;;4.06;58.53;95043.28;5086236;28;20112;-81
2023/03/20 03:20:28;;;;;;;6.70;4.60;;;;;;;4.07;58.52;95047.50;5075303;28;20477;-81
2023/03/20 03:22:53;;;;;;;8.07;5.10;;;;;;;4.01;59.18;95064.94;5075827;28;20078;-81
2023/03/20 03:25:20;;;;;;;7.22;4.88;;;;;;;4.05;59.10;95050.16;5058757;28;20040;-81
2023/03/20 03:27:47;;;;;;;8.93;5.40;;;;;;;3.94;59.04;95057.63;5070967;28;20394;-81
2023/03/20 03:30:16;;;;;;;7.97;4.93;;;;;;;3.77;59.50;95043.91;5092190;28;20085;-81
2023/03/20 03:33:02;;;;;;;11.20;6.30;;;;;;;4.00;59.62;95058.09;5093522;28;20036;-81
2023/03/20 03:35:27;;;;;;;11.13;6.78;;;;;;;4.07;59.68;95055.19;5075410;28;20059;-80
2023/03/20 03:37:59;;;;;;;9.48;6.00;;;;;;;3.99;59.51;95064.16;5092107;28;20460;-81
2023/03/20 03:40:27;;;;;;;;;;;;;;;4.14;58.59;95064.25;5092532;28;20487;-81
2023/03/20 03:43:20;;;;;;;9.68;5.10;;;;;;;4.11;58.97;95069.56;5093117;28;20015;-80
2023/03/20 03:45:48;;;;;;;8.05;5.20;;;;;;;3.93;59.61;95061.94;5085173;28;20048;-81
2023/03/20 03:48:19;;;;;;;7.32;5.00;;;;;;;3.85;60.02;95061.50;5078077;28;20030;-81
2023/03/20 03:50:53;;;;;;;8.98;5.50;;;;;;;3.80;59.79;95055.78;5128911;27;20122;-81
2023/03/20 03:53:21;;;;;;;7.32;4.97;;;;;;;3.85;59.49;95069.22;5110889;28;20134;-81
2023/03/20 03:55:49;;;;;;;7.45;5.15;;;;;;;3.64;60.07;95081.41;5078220;28;20071;-81
2023/03/20 03:58:29;;;;;;;8.60;5.00;;;;;;;3.47;60.25;95059.16;5095166;28;20027;-81
2023/03/20 04:00:55;;;;;;;6.85;4.60;;;;;;;3.73;59.52;95067.25;5078870;28;20463;-81
2023/03/20 04:03:23;;;;;;;11.10;5.68;;;;;;;3.70;59.65;95070.81;5083348;28;20074;-81
2023/03/20 04:05:48;;;;;;;8.48;5.32;;;;;;;3.77;59.68;95071.34;5074716;28;20056;-81
2023/03/20 04:08:15;;;;;;;9.15;5.70;;;;;;;3.53;59.77;95042.59;5057752;28;20102;-81
2023/03/20 04:10:41;;;;;;;8.65;5.13;;;;;;;3.61;59.96;95050.75;5074586;28;20035;-81
2023/03/20 04:13:06;;;;;;;8.45;5.00;;;;;;;3.70;59.86;95054.59;5069585;28;20028;-82
2023/03/20 04:15:32;;;;;;;7.85;5.22;;;;;;;3.53;59.81;95017.75;5088555;28;20224;-81
2023/03/20 04:17:57;;;;;;;8.73;5.43;;;;;;;3.79;59.76;95062.66;5074649;28;20021;-81
2023/03/20 04:20:23;;;;;;;8.63;5.20;;;;;;;3.77;59.07;95050.78;5075113;28;20035;-82
2023/03/20 04:22:49;;;;;;;8.43;5.30;;;;;;;3.76;59.21;95051.69;5111156;28;20034;-80
2023/03/20 04:25:22;;;;;;;8.93;5.40;;;;;;;3.71;59.34;95045.97;5077624;28;20425;-81
2023/03/20 04:27:48;;;;;;;8.32;5.88;;;;;;;3.59;59.78;95042.28;5128701;27;20027;-81
2023/03/20 04:30:13;;;;;;;16.88;10.73;;;;;;;3.51;60.94;95045.28;5094197;28;20031;-81
2023/03/20 04:32:39;;;;;;;13.60;8.45;;;;;;;3.25;61.61;95038.06;5110964;28;20032;-81
2023/03/20 04:35:05;;;;;;;9.35;5.82;;;;;;;3.40;61.13;95046.72;5111444;28;20077;-81
2023/03/20 04:37:30;;;;;;;11.63;7.72;;;;;;;3.44;61.48;95061.91;5094251;28;20078;-81
2023/03/20 04:39:56;;;;;;;13.98;8.48;;;;;;;3.36;61.74;95038.34;5092815;28;20031;-81
2023/03/20 04:42:21;;;;;;;16.90;9.20;;;;;;;3.38;62.40;95049.38;5110745;28;20031;-81
2023/03/20 04:44:46;;;;;;;13.93;8.65;;;;;;;3.28;62.34;95053.31;5111205;28;20028;-81
2023/03/20 04:47:12;;;;;;;17.77;10.40;;;;;;;2.93;61.83;94991.75;5076989;28;20027;-81
2023/03/20 04:49:37;;;;;;;27.08;12.77;;;;;;;3.35;61.95;95049.53;5109968;28;20038;-81
2023/03/20 04:52:03;;;;;;;27.30;13.73;;;;;;;3.16;62.59;95053.94;5077065;28;20035;-81
2023/03/20 04:54:28;;;;;;;25.05;13.20;;;;;;;3.09;63.06;95059.38;5094066;28;20028;-81
2023/03/20 04:56:54;;;;;;;46.63;20.10;;;;;;;3.00;63.13;95049.53;5090220;28;20023;-81
2023/03/20 04:59:19;;;;;;;52.92;22.40;;;;;;;3.03;62.81;95039.13;5073485;28;20039;-81
2023/03/20 05:01:45;;;;;;;38.75;18.33;;;;;;;3.09;62.56;95056.81;5073917;28;20109;-81
2023/03/20 05:04:10;;;;;;;14.15;7.28;;;;;;;2.94;64.28;95083.22;5090657;28;20055;-81
2023/03/20 05:06:36;;;;;;;11.95;6.68;;;;;;;2.83;64.33;95062.38;5073304;28;20028;-81
2023/03/20 05:09:01;;;;;;;9.80;5.70;;;;;;;2.82;64.43;95082.06;5090092;28;20038;-81
2023/03/20 05:11:27;;;;;;;9.75;5.43;;;;;;;2.93;64.43;95089.25;5073652;28;20039;-81
2023/03/20 05:13:53;;;;;;;13.13;7.47;;;;;;;3.03;64.01;95098.16;5087153;28;20493;-81
2023/03/20 05:16:18;;;;;;;8.30;5.43;;;;;;;2.82;64.85;95104.34;5110573;28;20489;-81
2023/03/20 05:18:44;;;;;;;11.75;5.78;;;;;;;2.81;64.57;95103.50;5093484;28;20030;-81
2023/03/20 05:21:09;;;;;;;9.38;6.00;;;;;;;2.57;65.42;95071.31;5092118;28;20122;-81
2023/03/20 05:23:35;;;;;;;11.88;7.28;;;;;;;2.90;64.55;95100.50;5076079;28;20032;-81
2023/03/20 05:26:01;;;;;;;11.60;6.65;;;;;;;3.03;64.06;95103.28;5092274;28;20031;-81
2023/03/20 05:28:29;;;;;;;9.88;6.45;;;;;;;3.01;64.12;95101.69;5109730;28;20400;-80
2023/03/20 05:30:55;;;;;;;16.13;8.68;;;;;;;3.07;64.12;95094.53;5073330;28;20374;-81
2023/03/20 05:33:20;;;;;;;19.15;11.70;;;;;;;3.12;64.71;95100.28;5070313;28;20031;-81
2023/03/20 05:35:46;;;;;;;14.68;8.43;;;;;;;3.14;63.65;95087.38;5072278;28;20120;-82
2023/03/20 05:38:11;;;;;;;16.83;9.68;;;;;;;3.39;63.28;95102.38;5106034;28;20028;-81
2023/03/20 05:40:37;;;;;;;44.60;25.15;;;;;;;3.51;63.53;95109.50;5105888;28;20046;-81
2023/03/20 05:43:02;;;;;;;34.17;19.27;;;;;;;3.39;63.59;95071.56;5107429;28;20108;-80
2023/03/20 05:45:28;;;;;;;31.67;18.55;;;;;;;3.51;63.64;95094.09;5073045;28;20434;-81
2023/03/20 05:47:53;;;;;;;24.95;15.40;;;;;;;3.83;63.36;95096.72;5087795;28;20034;-81
2023/03/20 05:50:19;;;;;;;27.25;16.55;;;;;;;3.97;63.06;95103.72;5086316;28;20038;-81
2023/03/20 05:52:48;;;;;;;25.58;14.60;;;;;;;4.14;62.87;95103.66;5104554;28;20028;-81
2023/03/20 05:55:14;;;;;;;30.08;16.25;;;;;;;4.36;62.15;95095.63;5105972;28;20031;-81
2023/03/20 05:57:39;;;;;;;27.00;16.58;;;;;;;4.53;62.17;95104.19;5088537;28;20236;-81
2023/03/20 06:00:07;;;;;;;28.63;17.27;;;;;;;4.83;60.83;95105.06;5070522;28;20035;-81
2023/03/20 06:02:32;;;;;;;34.80;19.83;;;;;;;4.76;60.38;95061.72;5071769;28;20085;-81
2023/03/20 06:04:58;;;;;;;41.13;23.40;;;;;;;5.08;59.69;95106.28;5087243;28;20052;-81
2023/03/20 06:07:23;;;;;;;40.10;24.83;;;;;;;5.27;59.21;95106.88;5090786;28;20063;-81
2023/03/20 06:09:49;;;;;;;43.83;24.80;;;;;;;5.17;58.79;95082.56;5105479;28;20413;-81
2023/03/20 06:12:15;;;;;;;33.78;19.63;;;;;;;5.38;59.02;95101.13;5106010;28;20027;-81
2023/03/20 06:14:40;;;;;;;29.45;18.45;;;;;;;5.48;58.52;95103.97;5089056;28;20041;-81
2023/03/20 06:17:06;;;;;;;28.70;18.10;;;;;;;5.57;57.98;95081.09;5107522;28;20031;-81
2023/03/20 06:19:31;;;;;;;35.38;20.48;;;;;;;5.87;57.34;95097.41;5070237;28;20024;-84
2023/03/20 06:21:57;;;;;;;33.47;20.50;;;;;;;5.93;56.80;95097.03;5090697;28;20106;-81
2023/03/20 06:24:23;;;;;;;35.10;18.52;;;;;;;5.89;56.96;95060.28;5072093;28;20398;-81
2023/03/20 06:26:48;;;;;;;46.30;27.05;;;;;;;6.00;56.43;95075.16;5089432;28;20057;-81
2023/03/20 06:29:14;;;;;;;72.70;29.25;;;;;;;6.49;55.76;95106.50;5091392;28;20426;-83
2023/03/20 06:31:39;;;;;;;50.53;25.20;;;;;;;6.60;55.24;95090.34;5110859;27;20027;-82
2023/03/20 06:34:05;;;;;;;41.33;23.15;;;;;;;6.84;54.55;95090.53;5074982;28;20027;-83
2023/03/20 06:36:31;;;;;;;32.85;19.20;;;;;;;7.05;54.20;95110.75;5091445;28;20043;-82
2023/03/20 06:38:56;;;;;;;33.55;19.55;;;;;;;6.83;53.78;95093.25;5089525;28;20031;-82
2023/03/20 06:41:21;;;;;;;30.92;18.52;;;;;;;6.90;53.99;95109.97;5093270;28;20036;-82
2023/03/20 06:43:47;;;;;;;36.28;18.65;;;;;;;6.84;53.74;95087.97;5092280;28;20039;-81
2023/03/20 06:46:13;;;;;;;32.95;18.15;;;;;;;6.96;53.97;95091.50;5110376;28;20081;-82
2023/03/20 06:48:38;;;;;;;30.17;17.00;;;;;;;7.31;53.42;95101.31;5108441;28;20028;-82
2023/03/20 06:51:04;;;;;;;29.80;16.50;;;;;;;7.44;53.14;95099.59;5109328;28;20425;-83
2023/03/20 06:53:29;;;;;;;27.10;16.92;;;;;;;7.27;53.33;95076.59;5076373;28;20062;-83
2023/03/20 06:55:55;;;;;;;30.45;17.40;;;;;;;7.06;53.15;95004.75;5111965;28;20088;-80
2023/03/20 06:58:20;;;;;;;30.42;17.73;;;;;;;7.96;52.40;95106.44;5093901;27;20023;-76
2023/03/20 07:00:46;;;;;;;30.83;17.00;;;;;;;8.13;51.38;95074.25;5113181;27;20035;-82
2023/03/20 07:03:11;;;;;;;31.73;17.70;;;;;;;8.15;50.51;95038.75;5108799;27;20039;-85
2023/03/20 07:05:37;;;;;;;32.35;18.05;;;;;;;8.68;49.83;95088.53;5093037;28;20101;-81
2023/03/20 07:08:03;;;;;;;31.13;19.20;;;;;;;8.59;49.85;95072.84;5113638;27;20413;-78
2023/03/20 07:10:29;;;;;;;30.40;19.45;;;;;;;8.28;49.85;94982.59;5083349;28;20059;-82
2023/03/20 07:12:55;;;;;;;32.80;19.48;;;;;;;8.75;48.89;95000.03;5112876;27;20449;-83
2023/03/20 07:15:21;;;;;;;35.53;19.40;;;;;;;9.23;48.52;95060.41;5094467;28;20472;-84
2023/03/20 07:17:46;;;;;;;37.33;20.23;;;;;;;8.86;48.61;94975.00;5094702;28;20039;-85
2023/03/20 07:20:12;;;;;;;31.83;19.92;;;;;;;9.73;48.26;95084.34;5094288;27;20439;-82
2023/03/20 07:22:38;;;;;;;36.65;20.83;;;;;;;9.90;47.35;95082.25;5110743;28;20085;-79
2023/03/20 07:25:04;;;;;;;37.13;20.17;;;;;;;9.88;46.95;95074.56;5113577;28;20020;-82
2023/03/20 07:27:30;;;;;;;37.00;19.85;;;;;;;9.49;46.93;94998.81;5112052;28;20028;-83
2023/03/20 07:29:55;;;;;;;35.65;18.60;;;;;;;10.23;46.01;95071.88;5107119;28;20040;-82
2023/03/20 07:32:21;;;;;;;27.50;17.42;;;;;;;10.01;45.77;95015.59;5089813;28;20025;-82
2023/03/20 07:34:48;;;;;;;26.08;14.82;;;;;;;10.51;45.26;95070.59;5091339;28;20386;-82
2023/03/20 07:37:14;;;;;;;30.52;18.10;;;;;;;9.66;45.78;94968.19;5091373;28;20116;-82
2023/03/20 07:39:39;;;;;;;30.52;18.00;;;;;;;9.89;46.07;95033.88;5089646;28;20058;-83
2023/03/20 07:42:05;;;;;;;28.73;17.05;;;;;;;9.85;45.47;94961.47;5090652;28;20048;-83
2023/03/20 07:44:31;;;;;;;30.48;17.55;;;;;;;10.28;45.32;95002.28;5074538;28;20024;-82
2023/03/20 07:46:56;;;;;;;25.15;16.30;;;;;;;9.99;44.59;94941.41;5074623;28;20448;-82
2023/03/20 07:49:22;;;;;;;29.38;15.32;;;;;;;10.92;43.94;95042.25;5074307;28;20023;-82
2023/03/20 07:51:48;;;;;;;22.98;13.52;;;;;;;10.50;43.76;94979.78;5089993;28;20028;-83
2023/03/20 07:54:14;;;;;;;23.17;13.68;;;;;;;11.19;42.61;95071.22;5090150;28;20173;-82
2023/03/20 07:56:39;;;;;;;21.92;12.63;;;;;;;10.70;41.90;95006.78;5088955;28;20417;-82
2023/03/20 07:59:05;;;;;;;26.60;13.98;;;;;;;10.91;42.98;95041.44;5072174;28;20028;-82
2023/03/20 08:01:31;;;;;;;22.35;12.63;;;;;;;10.86;42.25;95016.75;5089091;28;20032;-81
2023/03/20 08:03:56;;;;;;;27.65;14.15;;;;;;;11.44;42.56;95079.63;5088546;28;20044;-83
2023/03/20 08:06:22;;;;;;;27.73;15.55;;;;;;;11.21;43.84;95078.91;5123299;27;20486;-82
2023/03/20 08:08:50;;;;;;;26.77;16.27;;;;;;;11.15;44.25;95030.84;5074043;28;20036;-81
2023/03/20 08:11:16;;;;;;;29.88;16.05;;;;;;;11.16;43.48;94997.84;5091110;28;20040;-82
2023/03/20 08:13:41;;;;;;;35.10;16.10;;;;;;;11.71;43.29;95078.31;5090851;28;20024;-82
2023/03/20 08:16:07;;;;;;;27.25;15.23;;;;;;;11.15;43.85;95010.03;5090860;28;20031;-81
2023/03/20 08:18:33;;;;;;;25.65;15.65;;;;;;;11.78;43.42;95062.06;5090670;28;20113;-83
2023/03/20 08:20:58;;;;;;;28.30;16.00;;;;;;;11.55;43.67;95079.56;5073637;28;20105;-82
2023/03/20 08:23:24;;;;;;;28.48;16.17;;;;;;;11.24;43.82;95010.22;5090676;28;20038;-83
2023/03/20 08:25:50;;;;;;;27.60;16.35;;;;;;;11.92;43.20;95079.13;5090669;28;20028;-80
2023/03/20 08:28:15;;;;;;;27.05;14.93;;;;;;;12.20;42.52;95076.81;5091747;28;20039;-81
2023/03/20 08:30:41;;;;;;;25.77;15.45;;;;;;;12.41;42.52;95085.41;5090571;28;20027;-81
2023/03/20 08:33:06;;;;;;;28.15;16.25;;;;;;;12.52;42.16;95074.88;5107457;28;20387;-81
2023/03/20 08:35:32;;;;;;;22.98;15.00;;;;;;;12.81;42.40;95084.56;5090523;28;20028;-84
2023/03/20 08:37:57;;;;;;;26.20;15.73;;;;;;;12.88;41.40;95080.47;5107455;28;20020;-84
2023/03/20 08:40:22;;;;;;;26.83;14.95;;;;;;;13.20;41.38;95079.38;5092061;28;20458;-83
2023/03/20 08:42:48;;;;;;;23.45;14.57;;;;;;;13.33;40.57;95087.00;5107514;28;20032;-77
2023/03/20 08:45:14;;;;;;;23.92;15.45;;;;;;;13.33;41.31;95076.56;5091896;28;20426;-77
2023/03/20 08:47:39;;;;;;;27.08;15.55;;;;;;;13.16;41.11;95025.88;5107182;28;20035;-77
2023/03/20 08:50:06;;;;;;;23.17;15.75;;;;;;;13.48;40.83;95064.72;5089418;28;20078;-77
2023/03/20 08:52:32;;;;;;;21.77;13.38;;;;;;;13.48;40.73;95056.06;5107117;28;20068;-77
2023/03/20 08:54:57;;;;;;;23.17;13.77;;;;;;;13.74;40.61;95072.81;5090268;28;20462;-83
2023/03/20 08:57:23;;;;;;;21.73;12.50;;;;;;;13.83;39.20;95061.53;5056943;28;20016;-81
2023/03/20 08:59:48;;;;;;;21.85;14.52;;;;;;;13.95;38.95;95067.41;5073374;28;20051;-84
2023/03/20 09:02:14;;;;;;;26.35;15.38;;;;;;;13.64;39.47;95019.78;5124367;27;20036;-83
2023/03/20 09:04:40;;;;;;;22.92;13.30;;;;;;;13.67;39.35;95023.91;5073027;28;20052;-84
2023/03/20 09:07:05;;;;;;;21.15;13.25;;;;;;;13.45;39.27;94989.31;5090241;28;20099;-83
2023/03/20 09:09:31;;;;;;;16.70;10.95;;;;;;;13.64;38.94;94997.13;5090114;28;20383;-83
2023/03/20 09:11:57;;;;;;;21.98;12.52;;;;;;;14.12;38.17;95055.38;5124013;27;20043;-84
2023/03/20 09:14:23;;;;;;;19.30;12.75;;;;;;;13.83;38.44;95011.09;5089840;28;20474;-83
2023/03/20 09:16:49;;;;;;;19.67;11.70;;;;;;;14.04;37.97;95021.31;5073078;28;20048;-83
2023/03/20 09:19:15;;;;;;;21.63;11.98;;;;;;;13.96;37.89;94988.09;5089971;28;20035;-83
2023/03/20 09:21:41;;;;;;;19.15;11.52;;;;;;;14.19;37.75;95039.97;5124093;27;20504;-83
2023/03/20 09:24:06;;;;;;;20.67;12.27;;;;;;;14.15;37.40;95034.22;5089769;28;20043;-84
2023/03/20 09:26:32;;;;;;;28.70;13.82;;;;;;;14.41;37.97;95034.38;5089679;28;20039;-84
2023/03/20 09:28:57;;;;;;;17.88;11.18;;;;;;;13.44;38.07;94940.72;5089705;28;20067;-84
2023/03/20 09:31:23;;;;;;;19.98;11.75;;;;;;;14.07;38.30;95040.16;5089757;28;20035;-84
2023/03/20 09:33:48;;;;;;;21.98;11.52;;;;;;;13.50;38.45;94955.00;5089756;28;20028;-83
2023/03/20 09:36:14;;;;;;;19.70;11.02;;;;;;;13.80;38.10;94959.97;5089742;28;20498;-80
2023/03/20 09:38:41;;;;;;;17.30;10.45;;;;;;;13.71;37.33;94928.69;5072859;28;20122;-84
2023/03/20 09:41:06;;;;;;;18.65;11.38;;;;;;;13.85;38.41;94929.03;5089669;28;20043;-82
2023/03/20 09:43:37;;;;;;;20.20;11.45;;;;;;;14.26;38.05;95018.38;5089489;28;20028;-84
2023/03/20 09:46:33;;;;;;;19.10;10.85;;;;;;;14.39;38.20;95009.34;5089486;28;20032;-83
2023/03/20 09:49:34;;;;;;;21.52;11.18;;;;;;;14.05;38.06;94928.94;5090660;28;20520;-84
2023/03/20 09:52:00;;;;;;;20.60;11.50;;;;;;;14.59;37.86;94994.41;5092166;28;20036;-83
2023/03/20 09:54:43;;;;;;;17.02;11.32;;;;;;;14.41;37.97;94973.44;5089147;28;20089;-83
2023/03/20 09:57:19;;;;;;;22.77;11.70;;;;;;;13.85;38.07;94895.09;5073005;28;20040;-83
2023/03/20 09:59:44;;;;;;;16.75;11.23;;;;;;;14.49;37.55;94978.78;5090666;28;20378;-83
2023/03/20 10:02:14;;;;;;;17.70;10.43;;;;;;;14.64;37.92;94976.50;5091532;28;20082;-83
2023/03/20 10:04:40;;;;;;;18.35;10.10;;;;;;;14.29;38.15;94904.88;5093284;28;20051;-83
2023/03/20 10:07:05;;;;;;;21.35;10.52;;;;;;;14.72;37.88;94964.31;5093488;28;20032;-83
2023/03/20 10:09:32;;;;;;;16.27;10.38;;;;;;;14.30;37.47;94873.38;5093434;28;20032;-84
2023/03/20 10:12:09;;;;;;;17.85;10.70;;;;;;;14.96;37.58;94950.66;5076300;28;20429;-83
2023/03/20 10:14:43;;;;;;;16.95;10.15;;;;;;;14.68;37.00;94887.16;5076149;28;20405;-84
2023/03/20 10:17:27;;;;;;;17.38;10.60;;;;;;;15.15;37.50;94939.19;5094063;28;20032;-80
2023/03/20 10:19:57;;;;;;;15.65;9.45;;;;;;;15.12;37.31;94939.50;5094161;28;20024;-82
2023/03/20 10:22:28;;;;;;;15.93;8.90;;;;;;;15.14;36.45;94914.00;5093099;28;20028;-82
2023/03/20 10:24:53;;;;;;;13.23;9.60;;;;;;;15.11;36.38;94937.84;5093398;28;20032;-81
2023/03/20 10:27:23;;;;;;;13.13;8.55;;;;;;;15.22;35.99;94933.38;5092852;28;20051;-81
2023/03/20 10:30:27;;;;;;;13.50;8.23;;;;;;;15.24;35.74;94928.78;5092990;28;20024;-81
2023/03/20 10:33:11;;;;;;;13.00;7.97;;;;;;;15.40;35.69;94928.91;5092976;28;20043;-81
2023/03/20 10:35:50;;;;;;;12.52;7.78;;;;;;;15.59;35.15;94928.69;5093600;28;20043;-81
2023/03/20 10:38:41;;;;;;;12.32;7.22;;;;;;;15.64;34.57;94920.38;5094009;28;20513;-81
2023/03/20 10:41:17;;;;;;;16.17;8.27;;;;;;;15.72;35.03;94911.78;5092765;28;20107;-81
2023/03/20 10:43:43;;;;;;;14.45;8.25;;;;;;;15.99;34.34;94918.59;5092800;28;20505;-81
2023/03/20 10:46:12;;;;;;;10.65;7.45;;;;;;;15.82;34.30;94892.38;5075918;28;20034;-81
2023/03/20 10:48:51;;;;;;;11.05;7.55;;;;;;;15.94;34.53;94908.63;5075563;28;20028;-81
2023/03/20 10:51:17;;;;;;;10.52;7.40;;;;;;;15.94;34.00;94908.63;5092530;28;20058;-81
2023/03/20 10:53:57;;;;;;;12.45;7.13;;;;;;;15.89;33.32;94887.31;5092428;28;20024;-81
2023/03/20 10:56:35;;;;;;;14.73;7.68;;;;;;;16.11;33.98;94892.97;5076098;28;20055;-81
2023/03/20 10:59:07;;;;;;;13.93;7.53;;;;;;;16.12;34.04;94890.16;5092461;28;20036;-81
2023/03/20 11:01:33;;;;;;;17.25;8.25;;;;;;;16.30;33.68;94885.63;5092388;28;20301;-82
2023/03/20 11:03:58;;;;;;;15.57;8.15;;;;;;;16.43;33.55;94886.97;5109076;28;20086;-81
2023/03/20 11:06:27;;;;;;;9.80;6.90;;;;;;;16.64;33.14;94881.28;5075428;28;20032;-81
2023/03/20 11:08:53;;;;;;;11.45;6.55;;;;;;;16.64;33.05;94873.41;5092201;28;20409;-81
2023/03/20 11:11:26;;;;;;;16.38;7.18;;;;;;;16.61;32.57;94860.63;5075303;28;20021;-81
2023/03/20 11:13:52;;;;;;;9.13;6.30;;;;;;;16.73;31.88;94867.16;5074397;28;20437;-81
2023/03/20 11:16:28;;;;;;;9.65;6.97;;;;;;;16.76;31.38;94866.84;5109069;28;20028;-81
2023/03/20 11:18:54;;;;;;;11.93;6.55;;;;;;;16.87;31.04;94861.28;5092042;28;20043;-81
2023/03/20 11:21:27;;;;;;;10.93;6.22;;;;;;;17.01;31.27;94843.25;5092153;28;20028;-81
2023/03/20 11:23:53;;;;;;;10.98;7.15;;;;;;;17.02;31.28;94834.38;5075073;28;20516;-82
2023/03/20 11:26:32;;;;;;;11.98;6.60;;;;;;;17.15;31.09;94850.44;5075060;28;20122;-82
2023/03/20 11:28:58;;;;;;;13.57;7.47;;;;;;;17.05;30.74;94829.66;5091943;28;20062;-81
2023/03/20 11:31:25;;;;;;;17.60;7.80;;;;;;;17.28;30.06;94844.69;5091961;28;20422;-82
2023/03/20 11:34:05;;;;;;;14.88;8.18;;;;;;;17.44;30.55;94839.41;5091704;28;20024;-82
2023/03/20 11:36:36;;;;;;;12.65;7.47;;;;;;;17.43;29.79;94846.44;5091681;28;20040;-81